Date,TemperatureHighF,TemperatureAvgF,TemperatureLowF,DewpointHighF,DewpointAvgF,DewpointLowF,HumidityHigh,HumidityAvg,HumidityLow,PressureMaxIn,PressureMinIn,WindSpeedMaxMPH,WindSpeedAvgMPH,GustSpeedMaxMPH,PrecipitationSumIn
2013-1-1,53.8,45.3,35.1,52.9,41.9,29.8,99,88,67,30.30,29.98,13,6,17,0.08
2013-1-2,42.4,34.8,29.5,30.1,27.4,25.0,85,75,57,30.38,30.26,11,5,15,0.00
2013-1-3,43.0,36.5,26.1,31.7,28.0,22.1,87,72,62,30.47,30.37,10,4,14,0.00
2013-1-4,40.8,37.2,32.2,38.0,34.6,29.5,99,91,68,30.57,30.41,8,2,9,0.39
2013-1-5,64.4,44.2,36.5,42.8,38.9,31.0,99,84,49,30.42,29.74,6,2,9,9.70
2013-1-6,58.5,43.7,32.0,35.9,30.3,25.6,95,62,32,30.42,30.29,11,4,15,0.00
2013-1-7,55.0,43.4,31.3,38.7,30.8,23.3,75,61,45,30.37,30.08,9,3,15,0.00
2013-1-8,50.4,47.2,44.1,50.1,45.9,39.1,99,95,73,30.08,29.89,13,4,15,0.82
2013-1-9,57.0,54.1,50.2,55.4,53.1,49.9,99,97,93,30.02,29.84,17,6,24,1.83
2013-1-10,65.3,52.6,45.7,52.3,45.5,41.5,99,79,48,30.03,29.94,15,3,22,0.03
2013-1-11,76.5,60.5,45.9,64.0,52.6,41.0,95,76,53,30.02,29.77,12,5,21,0.00
2013-1-12,75.7,63.5,41.0,67.3,58.3,31.9,97,84,59,29.96,29.63,20,6,25,0.03
2013-1-13,48.9,39.7,33.1,32.5,26.3,20.3,75,59,41,30.24,29.95,16,10,23,0.00
2013-1-14,48.4,37.0,29.7,28.7,24.3,19.3,68,60,41,30.30,30.13,14,8,19,0.00
2013-1-15,37.9,33.8,30.6,31.4,28.0,20.6,92,80,63,30.30,30.14,15,8,21,0.02
2013-1-16,52.3,38.6,27.1,21.0,17.1,11.1,66,44,21,30.36,30.17,14,5,19,0.00
2013-1-17,64.6,49.5,37.8,35.7,29.4,19.1,69,48,24,30.53,30.31,11,5,15,0.00
2013-1-18,66.7,49.5,36.0,37.2,31.0,26.6,74,52,24,30.54,30.29,9,2,12,0.00
2013-1-19,71.2,53.6,41.4,46.9,42.2,33.1,97,68,36,30.34,30.11,12,4,20,0.00
2013-1-20,78.4,58.1,44.4,46.0,41.9,37.3,85,60,24,30.23,30.03,6,2,10,0.00
2013-1-21,69.3,55.3,42.1,50.7,44.0,37.4,98,68,42,30.26,30.13,9,3,12,0.00
2013-1-22,73.8,53.8,32.0,51.1,43.0,-10.6,86,69,14,30.31,30.15,9,2,116,12.69
2013-1-23,76.5,59.7,45.5,57.0,51.9,44.7,99,78,50,30.33,30.16,10,3,15,0.00
2013-1-24,83.7,67.1,56.7,62.3,58.3,54.4,99,76,43,30.22,30.04,9,4,13,0.00
2013-1-25,84.0,65.8,50.2,61.8,56.9,45.7,96,76,44,30.19,29.97,9,5,14,0.00
2013-1-26,60.8,52.4,47.1,56.3,50.4,45.7,99,93,83,30.21,30.07,6,3,8,0.00
2013-1-27,80.8,66.8,52.3,64.5,60.9,51.8,99,83,51,30.11,29.90,12,6,17,0.00
2013-1-28,79.0,70.9,66.4,66.8,64.7,62.9,95,82,58,30.00,29.83,14,7,23,0.00
2013-1-29,81.3,67.2,52.7,66.3,53.2,16.0,95,65,22,29.85,29.46,20,9,27,0.03
2013-1-30,57.6,49.3,39.2,30.2,16.9,9.1,57,28,19,30.25,29.80,21,9,27,0.00
2013-1-31,70.5,51.5,37.6,22.6,17.5,12.8,45,28,12,30.28,30.12,9,3,12,0.00
2013-2-1,71.6,55.3,36.7,41.6,31.7,20.6,74,43,20,30.39,30.15,9,4,14,0.00
2013-2-2,77.9,59.2,45.7,53.5,46.1,38.6,92,64,38,30.33,30.15,9,4,13,0.00
2013-2-3,72.9,57.9,39.6,46.3,33.6,17.5,74,45,13,30.36,30.01,11,3,15,0.00
2013-2-4,78.4,63.2,56.1,58.8,54.7,46.3,99,76,44,30.02,29.75,10,4,15,0.03
2013-2-5,81.9,64.0,49.6,54.2,47.4,39.4,94,60,23,29.99,29.85,10,3,15,0.00
2013-2-6,76.8,64.0,55.2,60.2,55.5,49.5,94,75,54,29.99,29.79,9,3,14,0.00
2013-2-7,85.1,66.7,56.5,60.5,52.0,31.9,99,66,21,30.10,29.80,17,6,21,12.75
2013-2-8,68.4,55.4,44.6,45.7,30.8,17.0,74,45,14,30.24,30.08,14,6,21,0.00
2013-2-9,63.9,56.3,48.7,63.0,53.5,32.6,99,91,51,30.12,29.77,14,5,17,0.00
2013-2-10,68.4,59.7,52.2,66.1,43.4,24.4,99,61,20,30.03,29.67,17,4,27,1.02
2013-2-11,58.6,52.8,48.4,49.7,44.7,38.9,92,75,51,30.11,29.99,11,5,17,16.45
2013-2-12,71.4,55.4,44.6,54.7,44.1,20.1,99,74,16,30.10,29.78,18,6,26,0.02
2013-2-13,63.3,47.1,35.2,38.5,33.6,26.0,87,63,25,30.19,30.02,18,5,21,0.00
2013-2-14,75.0,55.2,36.9,40.3,34.2,21.2,90,52,14,30.14,29.95,8,3,14,0.00
2013-2-15,58.1,47.1,36.3,41.5,33.9,22.2,85,61,48,30.44,30.07,13,5,17,0.00
2013-2-16,66.7,48.0,30.4,30.4,24.4,19.6,68,43,18,30.48,30.21,11,3,14,0.00
2013-2-17,70.9,57.6,42.4,50.9,34.7,25.8,75,45,22,30.22,29.94,13,6,18,13.81
2013-2-18,80.8,66.0,52.7,58.7,43.6,16.8,83,53,12,30.12,29.78,17,8,24,0.00
2013-2-19,64.9,54.2,37.9,34.4,28.7,18.5,72,40,18,30.28,30.09,12,6,18,0.00
2013-2-20,59.7,52.7,49.8,59.4,44.4,32.4,99,76,41,30.13,29.65,16,8,20,0.09
2013-2-21,75.6,62.4,45.1,65.4,37.7,15.0,99,51,11,29.89,29.61,21,8,30,0.16
2013-2-22,58.3,45.5,36.5,39.1,32.3,25.5,88,62,37,30.11,29.85,15,7,21,0.00
2013-2-23,69.4,50.3,32.2,37.5,31.7,27.1,83,53,23,30.08,29.86,11,4,15,0.00
2013-2-24,74.8,57.8,38.1,57.3,44.9,33.8,89,64,37,29.96,29.56,17,5,21,0.00
2013-2-25,61.0,53.1,43.2,59.6,35.8,18.6,99,56,20,29.86,29.54,34,14,44,10.06
2013-2-26,67.3,50.7,36.9,31.6,27.8,20.7,70,45,17,29.96,29.81,17,6,21,0.00
2013-2-27,61.9,50.4,42.1,34.2,24.5,17.4,65,38,19,30.26,29.87,19,8,25,0.00
2013-2-28,61.2,47.0,34.9,31.3,24.3,16.5,73,45,21,30.36,30.17,15,6,19,0.00
2013-3-1,69.3,52.9,35.1,28.9,22.3,17.2,59,34,14,30.32,30.10,14,4,19,0.00
2013-3-2,63.0,47.3,34.5,30.4,27.0,19.6,73,49,22,30.46,30.25,15,6,21,0.00
2013-3-3,76.6,58.4,39.9,43.1,29.2,22.4,58,36,16,30.29,29.88,13,6,19,0.00
2013-3-4,90.9,69.4,53.8,51.1,43.6,31.5,81,45,13,29.88,29.62,12,6,19,0.00
2013-3-5,69.3,53.8,38.7,52.5,24.4,8.5,66,36,16,30.42,29.72,27,11,34,0.00
2013-3-6,64.6,47.5,32.2,22.3,16.8,11.8,49,31,15,30.48,30.21,11,4,13,0.00
2013-3-7,73.2,57.3,41.2,53.3,40.9,19.6,78,56,35,30.25,30.05,13,4,19,0.00
2013-3-8,63.0,59.2,55.8,62.1,57.1,51.4,99,93,76,30.16,29.99,12,5,15,0.10
2013-3-9,72.3,64.9,60.3,65.9,62.5,58.3,99,92,78,29.99,29.60,14,6,20,0.28
2013-3-10,62.2,56.1,43.5,60.8,40.3,31.0,99,58,33,30.16,29.74,19,9,24,0.08
2013-3-11,68.0,50.1,34.0,33.1,25.2,15.1,77,43,15,30.19,29.98,14,5,17,0.00
2013-3-12,81.5,59.9,43.2,39.8,30.2,23.3,60,37,12,30.28,30.01,13,4,18,0.00
2013-3-13,77.9,58.8,41.5,40.7,35.4,30.6,71,45,21,30.43,30.25,11,3,14,0.00
2013-3-14,79.3,62.9,49.5,53.0,44.4,38.4,85,54,25,30.37,30.17,11,4,19,0.00
2013-3-15,81.7,66.7,53.1,55.1,48.0,39.4,98,58,23,30.23,29.95,13,6,21,0.00
2013-3-16,84.9,69.4,56.7,61.9,54.8,49.0,95,64,33,29.99,29.67,13,7,22,0.00
2013-3-17,87.4,71.9,64.0,63.2,59.9,56.5,86,69,37,29.79,29.60,11,4,18,0.01
2013-3-18,83.1,71.3,57.9,65.2,53.7,39.1,98,61,22,29.98,29.70,14,6,17,0.00
2013-3-19,84.7,63.9,46.6,61.1,51.2,42.2,89,65,41,30.05,29.79,16,4,21,0.00
2013-3-20,70.2,58.5,48.6,53.3,43.1,26.0,99,63,20,30.26,30.03,16,7,21,0.22
2013-3-21,77.5,63.2,50.9,60.2,51.5,38.3,86,66,50,30.04,29.55,14,5,21,0.00
2013-3-22,81.1,68.4,51.4,65.5,59.2,46.5,94,74,52,29.80,29.60,12,6,17,0.00
2013-3-23,84.2,59.6,47.5,61.6,52.4,45.9,99,81,37,29.83,29.54,11,5,14,0.00
2013-3-24,56.8,48.6,39.0,56.6,29.5,15.8,99,52,22,30.21,29.70,26,12,30,0.00
2013-3-25,59.2,44.5,31.8,25.5,19.1,12.4,64,40,19,30.44,30.20,14,5,24,0.00
2013-3-26,67.1,49.3,31.1,24.7,19.9,14.8,65,35,15,30.50,30.26,8,3,12,0.00
2013-3-27,71.2,55.7,36.1,47.4,37.2,22.9,74,51,34,30.34,30.11,11,4,17,0.00
2013-3-28,76.3,62.3,52.0,59.1,54.8,46.7,94,77,54,30.19,30.07,11,4,15,0.00
2013-3-29,78.3,67.2,57.0,59.4,57.0,55.2,99,72,47,30.16,30.01,11,4,17,0.00
2013-3-30,84.2,70.7,63.0,63.3,60.1,57.1,90,71,45,30.09,29.84,11,4,16,0.00
2013-3-31,81.0,68.5,62.4,69.0,63.8,58.4,96,86,57,29.98,29.84,10,3,14,0.11
2013-4-1,84.6,69.6,55.2,66.4,60.6,54.4,99,76,45,30.06,29.86,11,4,13,0.00
2013-4-2,74.8,65.1,49.8,66.8,62.8,49.2,99,93,74,30.04,29.79,24,5,30,0.90
2013-4-3,53.6,49.2,46.4,52.9,48.9,46.1,99,99,95,30.17,29.88,15,8,21,0.12
2013-4-4,57.9,48.3,40.8,46.4,42.7,39.0,98,82,62,30.25,30.11,14,7,18,0.00
2013-4-5,77.2,55.2,35.8,48.4,43.0,35.0,99,68,31,30.28,30.02,8,2,11,0.00
2013-4-6,81.3,65.1,49.1,58.1,52.8,45.0,96,67,43,30.06,29.80,11,5,19,0.00
2013-4-7,82.2,68.2,60.8,64.8,60.7,56.8,91,78,51,29.90,29.69,12,6,17,26.31
2013-4-8,72.7,68.2,65.1,67.3,64.3,60.8,97,88,78,29.80,29.64,12,5,20,0.00
2013-4-9,85.8,73.6,68.7,69.1,66.5,64.4,92,80,54,29.68,29.55,14,8,24,0.00
2013-4-10,72.7,53.2,40.5,68.4,49.3,39.3,99,87,69,30.00,29.61,19,10,28,0.41
2013-4-11,72.7,53.4,41.7,44.0,39.4,35.9,85,62,29,30.01,29.77,18,5,23,0.00
2013-4-12,81.9,63.4,42.4,47.6,42.7,36.0,94,53,20,29.97,29.80,11,3,14,0.00
2013-4-13,77.4,63.8,52.2,60.7,52.4,45.3,93,69,33,29.96,29.77,11,3,17,0.03
2013-4-14,91.0,72.1,56.5,66.7,60.1,53.5,99,70,34,29.81,29.52,11,4,15,0.00
2013-4-15,90.7,77.1,68.0,67.5,66.2,64.2,96,72,44,29.77,29.64,12,6,18,0.00
2013-4-16,88.0,76.4,67.5,69.8,66.1,63.8,89,72,49,29.86,29.74,17,7,23,0.00
2013-4-17,85.1,75.6,71.4,71.8,69.4,66.8,98,82,56,29.86,29.64,15,6,23,0.01
2013-4-18,73.0,60.0,47.5,71.6,51.0,36.4,99,74,44,30.14,29.60,24,10,31,0.33
2013-4-19,68.0,50.2,38.7,37.7,29.9,17.0,86,52,14,30.31,30.13,15,5,19,0.00
2013-4-20,73.2,58.4,41.5,46.3,29.5,18.6,69,39,13,30.24,29.96,11,4,18,0.00
2013-4-21,78.8,62.9,45.7,54.6,50.7,43.5,97,67,42,30.13,29.97,11,4,17,0.00
2013-4-22,85.8,70.4,54.0,61.0,57.4,53.1,97,67,41,30.09,29.81,12,5,19,0.00
2013-4-23,71.6,61.0,46.0,65.4,56.4,40.9,94,85,72,30.17,29.81,15,6,21,0.00
2013-4-24,63.5,51.1,40.8,40.7,36.1,30.5,85,59,33,30.31,30.16,18,10,25,0.00
2013-4-25,67.1,59.4,44.8,46.6,43.6,39.3,81,56,42,30.34,30.16,11,4,16,0.00
2013-4-26,77.5,67.3,57.7,69.3,62.3,43.9,99,85,50,30.16,29.97,11,4,18,0.01
2013-4-27,87.4,74.1,66.4,70.4,67.1,63.3,99,81,47,30.06,29.94,8,3,15,0.38
2013-4-28,88.5,79.8,67.5,63.5,60.1,55.2,86,53,33,29.96,29.79,9,4,14,0.00
2013-4-29,84.4,71.7,63.7,69.0,63.9,59.0,99,79,47,29.92,29.74,9,3,15,0.26
2013-4-30,86.0,72.1,61.0,71.2,63.2,60.4,99,76,46,29.84,29.68,13,3,18,0.01
2013-5-1,90.7,76.0,65.1,67.8,65.4,62.6,99,72,43,29.94,29.75,11,4,13,0.00
2013-5-2,72.5,53.1,44.4,64.7,46.5,34.9,89,78,65,30.38,29.90,24,13,33,0.05
2013-5-3,69.4,53.7,39.9,35.6,27.7,18.6,75,43,15,30.38,30.05,20,9,28,0.00
2013-5-4,85.3,65.0,46.0,37.8,29.7,21.2,56,31,11,30.10,29.83,15,4,21,0.05
2013-5-5,75.7,60.4,44.2,47.7,41.0,31.5,73,50,29,30.16,29.99,15,5,19,0.00
2013-5-6,79.3,64.3,47.5,50.8,46.9,42.5,86,56,31,30.12,29.96,6,2,9,0.00
2013-5-7,87.1,71.0,50.2,53.3,49.7,45.8,88,51,27,30.08,29.86,10,3,14,0.00
2013-5-8,85.5,72.0,60.8,65.0,61.4,52.7,97,72,47,30.00,29.84,12,4,14,0.01
2013-5-9,79.7,69.2,62.1,69.7,65.3,56.6,99,88,64,29.99,29.79,18,4,21,0.14
2013-5-10,85.5,69.6,59.2,67.8,61.8,54.4,99,79,47,30.05,29.79,21,6,28,1.83
2013-5-11,79.2,68.1,58.8,61.9,56.4,49.2,99,70,37,30.16,30.01,15,6,21,0.02
2013-5-12,81.0,66.9,54.7,57.5,49.7,40.1,85,57,25,30.27,30.10,11,4,15,0.00
2013-5-13,88.3,72.1,51.6,54.1,48.4,37.4,79,47,18,30.24,30.09,11,2,14,0.00
2013-5-14,87.6,74.5,62.1,67.6,60.1,54.2,84,63,34,30.20,29.94,12,5,18,0.00
2013-5-15,86.9,73.7,63.9,72.3,68.3,63.0,99,85,56,30.07,29.75,12,6,19,0.23
2013-5-16,92.5,76.2,64.0,73.0,69.2,63.2,99,82,46,29.89,29.65,11,5,17,0.27
2013-5-17,94.5,81.6,72.7,73.1,71.4,69.3,94,73,46,29.85,29.72,11,4,14,0.00
2013-5-18,95.5,81.6,70.2,72.0,67.8,63.4,95,66,42,29.88,29.74,14,6,24,0.00
2013-5-19,92.8,80.5,70.5,71.3,68.6,65.6,92,69,48,29.81,29.66,14,6,18,0.00
2013-5-20,92.7,80.7,71.2,71.7,69.4,67.1,93,71,47,29.81,29.63,13,6,21,0.16
2013-5-21,89.1,76.9,68.4,75.0,68.7,58.1,91,77,55,29.88,29.67,14,6,19,0.00
2013-5-22,93.7,76.1,54.5,69.5,58.6,50.2,99,60,27,29.91,29.75,9,3,11,0.00
2013-5-23,88.0,78.9,71.4,72.5,70.8,69.5,96,78,57,30.02,29.84,11,4,15,0.00
2013-5-24,81.9,75.4,69.1,74.7,71.5,66.0,94,88,72,30.09,29.98,8,3,13,0.33
2013-5-27,88.7,81.9,74.1,71.0,70.1,68.7,86,69,53,29.87,29.78,10,5,16,0.03
2013-5-28,90.9,79.2,71.2,70.7,68.7,66.5,89,72,47,29.87,29.72,13,7,21,0.00
2013-5-29,86.0,76.6,72.1,75.5,70.9,68.7,94,83,63,29.86,29.66,15,6,24,0.19
2013-5-30,91.4,80.1,73.6,73.1,71.0,69.8,90,75,51,29.80,29.69,15,6,26,0.00
2013-6-1,98.8,89.3,81.0,73.7,72.1,70.3,76,58,42,29.88,29.74,7,3,11,0.01
2013-6-2,88.0,76.3,66.4,74.5,64.6,58.2,98,70,40,30.06,29.87,9,4,13,0.07
2013-6-3,93.2,74.5,61.3,66.3,61.3,57.2,92,67,32,30.00,29.78,8,2,10,0.01
2013-6-4,95.5,81.5,69.8,69.3,65.7,61.9,95,62,37,29.87,29.73,11,4,16,0.00
2013-6-5,93.6,81.3,69.4,70.0,66.5,63.6,95,64,39,29.90,29.69,11,4,15,0.00
2013-6-6,94.3,80.2,70.7,70.0,66.0,61.9,93,65,36,29.93,29.75,13,5,18,33.35
2013-6-7,87.4,74.2,65.3,65.2,59.9,52.8,95,65,33,30.00,29.84,11,3,15,0.00
2013-6-8,92.1,78.0,60.4,70.1,61.3,53.6,83,58,40,29.94,29.73,11,3,15,0.00
2013-6-9,89.8,78.4,65.1,72.6,69.4,62.8,99,76,46,29.98,29.81,15,3,20,0.48
2013-6-10,96.6,83.5,69.3,72.1,68.0,59.4,98,64,31,29.97,29.84,10,2,14,0.00
2013-6-11,82.0,75.1,72.0,73.9,71.7,70.0,97,90,74,30.00,29.94,5,2,9,0.00
2013-6-12,97.2,82.6,72.7,74.0,71.4,68.7,97,72,41,30.02,29.88,9,4,13,0.00
2013-6-13,98.2,82.7,71.4,75.4,70.7,63.8,97,70,39,30.04,29.88,9,3,14,0.00
2013-6-14,94.3,84.3,77.4,75.5,72.7,68.9,88,69,46,29.98,29.86,7,2,10,0.00
2013-6-15,91.4,82.2,75.4,75.3,72.4,68.4,96,74,48,29.96,29.85,8,2,12,0.00
2013-6-16,97.9,85.4,72.9,73.8,69.8,64.6,97,63,36,29.98,29.84,8,3,12,0.00
2013-6-17,99.1,85.5,74.3,74.1,70.0,64.1,93,63,35,29.98,29.78,12,3,16,0.00
2013-6-18,96.6,81.6,68.2,73.9,70.9,67.1,99,73,43,30.02,29.82,11,3,15,0.25
2013-6-19,97.5,84.5,71.6,74.8,70.2,66.9,98,65,38,29.95,29.84,10,3,17,0.00
2013-6-20,96.8,84.7,72.9,72.7,68.6,63.9,93,61,36,30.02,29.88,10,4,17,0.00
2013-6-21,97.5,85.2,73.6,73.2,68.2,61.3,95,61,33,30.04,29.90,11,4,16,0.00
2013-6-22,96.3,84.9,73.9,73.3,68.1,63.0,93,61,36,30.01,29.83,13,5,18,0.00
2013-6-23,95.9,84.1,73.6,73.0,67.6,59.5,95,61,34,29.95,29.83,11,5,17,0.00
2013-6-24,99.0,85.0,74.3,73.3,69.4,64.3,92,63,35,30.01,29.83,11,6,17,0.00
2013-6-25,99.0,86.2,75.9,73.0,68.5,62.6,90,59,31,29.98,29.80,11,6,17,0.00
2013-6-26,100.2,86.3,74.8,73.3,69.4,64.7,89,61,33,29.95,29.81,11,5,17,0.00
2013-6-27,104.5,87.4,74.1,72.8,65.2,43.8,92,54,13,30.01,29.83,9,3,12,0.00
2013-6-28,108.0,89.7,74.7,72.4,66.2,54.8,86,51,18,29.97,29.75,11,3,19,0.00
2013-6-29,105.3,91.2,75.6,70.7,63.7,54.6,74,43,21,29.86,29.69,13,4,15,0.00
2013-6-30,98.1,85.1,73.2,70.6,64.8,59.9,81,52,34,29.94,29.78,14,4,17,0.00
2013-7-1,86.5,78.5,69.4,60.3,55.0,47.2,64,46,26,30.00,29.90,17,5,21,0.00
2013-7-2,91.4,78.5,64.2,60.4,50.1,37.5,71,41,19,30.06,29.91,11,4,14,0.00
2013-7-3,97.2,79.4,62.4,60.9,49.4,42.6,65,38,16,30.04,29.85,14,3,18,0.00
2013-7-4,96.6,81.8,68.5,68.7,58.2,48.4,87,48,24,29.97,29.82,10,2,12,0.00
2013-7-5,98.8,85.2,68.4,69.7,61.0,52.8,87,48,22,29.96,29.77,11,4,16,0.00
2013-7-6,98.1,85.3,68.5,69.9,65.4,58.3,89,55,30,29.92,29.76,14,4,20,0.00
2013-7-7,98.2,84.7,71.8,74.3,69.7,63.7,95,65,33,29.96,29.81,12,4,16,0.00
2013-7-8,87.1,79.6,75.0,76.7,72.8,68.6,97,81,59,30.09,29.95,7,3,10,0.31
2013-7-9,99.3,85.7,72.3,74.1,70.2,64.7,98,65,34,30.12,29.94,11,4,13,0.00
2013-7-10,101.5,90.7,77.7,74.4,68.9,63.7,87,52,31,30.06,29.85,14,4,16,0.00
2013-7-11,101.5,88.0,75.0,74.2,67.5,55.2,90,55,23,29.99,29.80,8,3,12,0.00
2013-7-12,102.4,89.2,74.8,70.5,65.2,-99.9,83,49,28,29.92,29.80,11,3,63,34.39
2013-7-13,102.4,90.4,76.1,69.0,64.1,58.2,75,45,26,29.93,29.78,11,3,14,0.00
2013-7-14,96.4,79.5,68.2,68.9,65.0,61.5,99,64,35,29.92,29.83,18,6,25,0.05
2013-7-15,73.2,69.1,66.4,72.3,68.6,66.1,99,98,97,30.03,29.91,11,5,17,1.63
2013-7-16,87.6,75.5,68.7,75.6,71.2,68.4,99,88,57,30.14,29.99,15,4,19,0.12
2013-7-17,86.2,74.0,69.8,75.6,71.2,69.2,99,92,65,30.17,30.07,12,3,17,0.50
2013-7-18,94.3,79.6,70.2,74.4,70.0,65.4,98,76,43,30.17,29.94,8,2,11,0.02
2013-7-19,97.0,82.5,70.0,74.9,68.4,61.7,98,67,34,30.06,29.85,14,2,20,0.00
2013-7-20,96.8,82.5,72.3,74.2,70.5,65.1,96,70,37,29.99,29.78,11,3,20,0.13
2013-7-21,96.6,82.0,72.9,75.2,72.5,69.6,97,76,44,29.93,29.82,11,3,18,0.00
2013-7-22,96.6,85.3,75.2,75.1,72.4,68.4,94,68,43,29.95,29.82,10,5,14,0.00
2013-7-23,97.5,85.7,76.3,74.6,70.3,63.4,90,64,35,29.97,29.82,8,4,13,0.00
2013-7-24,98.4,85.0,74.3,75.1,72.5,69.0,95,69,39,29.96,29.82,9,3,12,0.00
2013-7-25,97.9,86.2,74.1,74.1,69.7,64.6,94,61,35,29.99,29.89,10,3,14,0.00
2013-7-26,102.2,86.2,75.0,75.4,70.8,66.5,97,64,36,29.99,29.80,11,4,14,0.21
2013-7-27,86.4,78.3,70.0,75.9,71.7,67.2,99,82,55,29.98,29.85,11,5,15,0.01
2013-7-28,97.0,81.1,69.1,76.7,70.6,67.5,99,74,43,29.95,29.78,10,3,14,0.01
2013-7-29,98.1,86.1,76.1,74.6,69.7,60.5,93,62,30,29.99,29.87,13,5,19,0.00
2013-7-30,98.8,85.7,74.7,73.6,70.0,64.8,93,63,35,30.06,29.90,9,4,14,0.00
2013-7-31,102.9,87.0,73.4,73.1,67.6,62.2,95,57,31,30.06,29.87,8,3,12,0.00
2013-8-1,103.1,88.7,75.7,71.2,67.9,63.7,79,53,33,30.00,29.83,8,2,13,0.00
2013-8-2,100.8,88.1,76.5,70.0,65.8,62.6,73,50,30,29.94,29.81,8,3,13,0.00
2013-8-3,99.3,87.2,75.0,73.7,69.0,62.7,93,58,31,29.98,29.86,13,4,15,0.00
2013-8-4,99.3,87.3,74.5,75.2,71.4,66.7,96,62,36,30.04,29.86,8,4,14,0.00
2013-8-5,101.7,87.6,73.2,72.6,68.5,63.3,90,57,31,30.00,29.81,9,4,17,0.00
2013-8-6,102.7,88.0,73.8,74.0,69.9,62.5,91,59,29,29.93,29.74,11,4,15,0.00
2013-8-7,104.2,88.5,74.7,74.9,70.1,59.2,94,59,26,29.88,29.71,10,4,16,0.00
2013-8-8,104.2,87.9,74.1,75.0,67.3,44.1,95,56,14,29.87,29.71,11,4,27,0.00
2013-8-9,104.7,86.7,72.3,74.4,63.7,43.4,98,55,13,29.94,29.80,9,3,14,0.00
2013-8-10,100.6,87.3,75.0,75.4,69.4,56.0,97,60,32,30.03,29.86,12,3,21,0.30
2013-8-11,97.2,84.2,73.2,76.1,72.1,67.5,99,71,40,30.04,29.90,11,2,14,0.01
2013-8-12,99.7,85.1,72.0,73.7,69.1,64.4,97,63,34,30.03,29.87,8,2,14,0.00
2013-8-13,104.0,88.4,74.8,72.9,67.6,60.1,91,54,25,30.00,29.82,9,3,11,0.00
2013-8-14,100.6,82.1,73.6,73.9,70.9,62.6,99,72,37,30.01,29.87,13,4,17,0.06
2013-8-15,90.9,77.9,71.6,76.1,72.5,70.0,99,86,52,30.01,29.88,11,3,14,0.15
2013-8-16,90.7,77.9,68.9,74.9,68.8,63.5,99,77,42,30.04,29.89,13,3,17,0.01
2013-8-17,91.9,78.7,66.9,68.3,63.4,55.5,98,63,31,30.05,29.89,13,4,17,0.00
2013-8-18,93.6,80.1,64.6,64.0,59.8,57.2,83,53,31,30.03,29.93,10,3,14,0.00
2013-8-19,96.6,82.2,66.9,66.3,61.7,58.4,87,53,33,30.03,29.86,11,2,14,0.00
2013-8-20,96.1,83.1,66.9,69.3,63.6,57.0,89,55,28,30.00,29.88,12,4,17,0.00
2013-8-21,98.1,82.8,70.9,73.2,68.8,64.1,94,66,34,30.06,29.90,11,3,14,0.00
2013-8-22,98.8,85.3,71.6,74.1,69.4,65.0,96,62,34,30.08,29.87,8,3,13,0.00
2013-8-23,99.0,85.8,71.8,76.7,68.0,62.7,95,60,31,30.01,29.83,14,3,19,0.00
2013-8-24,100.0,86.1,73.9,72.7,67.9,63.4,86,57,33,30.02,29.88,12,3,15,0.00
2013-8-25,93.6,84.1,71.1,73.5,69.0,65.7,94,63,43,30.07,29.96,14,5,19,0.00
2013-8-26,91.6,79.7,73.6,72.5,70.3,66.1,93,75,44,30.12,29.97,14,6,19,0.00
2013-8-27,86.0,76.9,71.8,76.1,69.8,60.2,97,80,50,30.11,29.99,10,3,13,0.01
2013-8-28,98.8,83.4,70.5,75.5,68.4,63.9,99,65,34,30.08,29.94,11,2,15,0.00
2013-8-29,102.9,87.3,74.7,70.0,65.8,60.8,82,52,27,30.06,29.89,11,2,14,0.01
2013-8-30,103.8,89.1,76.3,69.1,63.6,58.3,69,45,25,29.98,29.81,8,2,12,0.00
2013-8-31,103.5,87.1,76.1,70.4,67.4,64.3,76,54,30,29.90,29.76,6,3,12,0.00
2013-9-1,101.8,87.9,75.6,71.6,67.9,64.4,81,54,32,29.88,29.74,11,3,15,0.00
2013-9-2,97.5,84.4,74.5,73.9,70.3,65.2,95,65,39,29.93,29.78,12,3,18,0.09
2013-9-3,103.5,85.2,72.1,74.7,69.3,64.5,91,63,33,29.97,29.82,11,2,16,0.00
2013-9-4,102.6,85.4,73.9,74.4,69.7,64.8,98,63,33,30.04,29.86,9,3,12,0.14
2013-9-5,98.2,84.7,70.0,73.4,68.5,64.6,92,62,35,30.06,29.93,11,3,14,0.00
2013-9-6,97.0,84.5,70.0,74.1,68.9,62.3,97,63,34,30.06,29.89,11,3,15,0.00
2013-9-7,97.0,82.3,70.7,75.4,69.7,63.5,98,69,35,30.00,29.84,13,3,20,0.00
2013-9-8,95.2,79.7,67.1,75.9,69.7,64.4,99,75,40,29.98,29.80,11,3,14,0.00
2013-9-9,95.7,78.3,67.8,73.2,69.2,64.3,99,77,36,29.98,29.85,14,3,19,0.00
2013-9-10,90.7,77.8,70.7,74.2,70.1,66.2,98,80,46,30.05,29.92,13,4,18,0.00
2013-9-11,95.2,80.8,69.3,75.7,67.8,61.3,99,69,35,30.09,29.93,13,3,15,0.00
2013-9-12,95.7,82.0,67.6,74.4,66.5,61.3,99,64,34,30.05,29.86,11,2,14,0.00
2013-9-13,98.2,84.7,71.4,71.3,64.3,59.4,90,54,29,29.95,29.76,11,3,16,0.00
2013-9-14,96.6,84.3,70.2,71.2,64.4,56.8,83,55,33,29.91,29.78,11,3,14,0.00
2013-9-15,93.2,85.6,77.2,71.6,66.9,63.6,70,54,42,30.00,29.89,11,4,13,0.01
2013-9-16,93.0,77.9,69.1,74.2,70.0,66.2,99,79,46,30.05,29.90,12,3,17,1.00
2013-9-17,92.1,79.7,71.2,76.8,71.2,65.4,99,78,46,30.06,29.88,8,2,14,0.02
2013-9-18,93.9,81.4,69.4,75.8,69.4,63.2,99,71,38,30.00,29.82,11,3,18,0.00
2013-9-19,91.9,78.8,72.1,77.8,72.7,69.5,99,83,49,29.94,29.77,13,2,15,0.76
2013-9-20,75.2,72.4,68.9,74.9,71.9,68.1,99,98,97,29.88,29.79,17,4,22,2.65
2013-9-21,82.2,71.2,61.0,69.0,59.4,47.2,99,71,30,29.93,29.80,14,7,19,0.00
2013-9-22,83.3,69.2,55.0,57.1,52.4,45.5,86,58,28,29.90,29.75,9,3,12,0.00
2013-9-23,92.7,74.5,57.4,58.9,52.8,46.7,81,51,22,29.83,29.69,7,2,9,0.00
2013-9-24,92.7,74.7,61.5,64.1,58.8,54.2,84,59,35,29.90,29.82,6,1,8,0.00
2013-9-25,97.7,81.0,65.3,67.8,61.6,58.8,83,55,30,29.88,29.72,7,1,9,0.00
2013-9-26,92.5,80.5,70.0,72.8,60.4,47.3,84,53,23,29.86,29.76,10,4,15,0.00
2013-9-27,90.0,79.4,72.5,75.8,73.8,71.0,98,84,59,29.89,29.77,11,4,17,0.00
2013-9-28,92.1,79.0,70.9,77.4,74.4,70.3,99,87,52,30.00,29.83,9,4,16,0.61
2013-9-29,75.7,66.0,61.9,70.3,64.2,61.3,99,94,70,30.08,29.94,11,6,14,0.23
2013-10-5,60.6,59.9,59.0,48.1,43.9,40.1,67,56,47,30.09,30.07,14,8,17,0.01
2013-10-6,79.7,65.2,51.4,51.9,41.1,25.9,92,48,14,30.13,30.03,14,6,21,0.12
2013-10-7,87.3,69.3,49.5,46.1,39.4,30.8,68,37,16,30.16,30.00,8,2,11,0.00
2013-10-8,87.8,69.7,51.4,51.5,47.1,40.5,81,48,23,30.10,29.93,10,2,12,0.00
2013-10-9,84.7,69.6,54.1,61.2,56.0,49.1,98,65,37,30.04,29.92,13,2,16,0.00
2013-10-10,86.5,72.0,60.6,67.5,63.2,57.7,99,76,46,30.02,29.85,10,3,16,0.00
2013-10-11,89.2,77.3,70.0,74.8,70.6,66.1,95,81,51,29.93,29.78,11,4,15,0.01
2013-10-12,95.2,80.5,72.5,75.8,72.4,68.8,99,79,44,30.02,29.84,11,4,14,0.00
2013-10-13,76.3,69.8,65.1,72.0,68.6,64.8,99,96,84,30.17,30.00,11,5,15,1.24
2013-10-14,79.9,73.0,70.2,74.8,71.3,69.6,98,94,82,30.08,29.90,8,3,11,0.10
2013-10-15,83.3,70.5,54.0,72.6,67.4,53.1,99,91,66,30.04,29.85,13,5,18,0.04
2013-10-16,61.5,55.5,51.1,58.3,54.0,50.8,99,95,84,30.10,30.00,13,6,17,0.92
2013-10-17,75.4,59.7,46.8,53.3,49.1,45.0,99,72,37,30.13,29.96,7,3,10,0.00
2013-10-18,71.1,62.3,53.2,63.5,57.4,50.6,97,84,69,30.05,29.87,17,2,22,45.56
2013-10-19,67.5,53.8,43.7,54.8,43.3,37.4,98,71,35,30.23,30.05,17,6,23,0.00
2013-10-20,75.0,57.9,41.9,52.1,45.6,40.4,97,67,35,30.13,29.88,11,2,12,0.00
2013-10-21,84.9,66.2,58.5,67.2,60.0,49.8,98,81,53,30.09,29.86,14,4,18,0.00
2013-10-22,76.1,61.2,49.3,55.2,44.5,34.5,93,60,24,30.17,30.05,11,5,16,0.00
2013-10-23,86.0,68.7,54.3,48.9,43.0,34.6,62,43,17,30.14,30.03,5,2,8,0.00
2013-10-24,85.3,68.1,55.8,50.0,45.5,39.4,75,48,22,30.24,30.10,8,2,10,0.00
2013-10-25,77.9,65.0,49.8,60.7,55.8,48.1,99,73,50,30.33,30.18,8,3,14,0.00
2013-10-26,82.0,68.5,61.9,65.7,62.3,59.5,97,82,53,30.22,30.02,11,4,14,0.00
2013-10-27,72.3,65.0,61.2,66.0,62.3,58.5,99,91,68,30.12,30.00,8,3,11,0.33
2013-10-28,81.3,70.6,63.0,69.1,65.9,62.1,99,86,62,30.07,29.94,11,4,15,0.00
2013-10-29,82.6,74.3,69.6,71.3,68.5,67.0,95,83,62,30.05,29.93,9,5,16,0.00
2013-10-30,86.0,74.6,70.5,74.4,71.6,68.0,99,91,65,30.01,29.79,11,3,21,0.27
2013-10-31,79.0,69.8,52.0,69.6,52.4,29.4,99,63,17,29.92,29.72,17,5,22,0.04
2013-11-1,83.8,65.8,51.1,53.2,42.4,29.8,76,47,16,30.11,29.77,14,5,22,46.22
2013-11-2,72.1,59.6,47.3,45.6,37.5,23.9,77,48,17,30.29,30.09,12,5,17,0.00
2013-11-3,70.7,56.9,43.9,52.7,40.4,35.4,80,56,31,30.26,29.98,12,3,16,0.00
2013-11-4,62.8,60.3,57.2,61.9,58.8,53.0,99,95,78,30.06,29.96,11,3,14,0.10
2013-11-5,77.9,69.0,62.2,69.5,66.1,61.7,99,91,69,30.01,29.78,8,4,13,46.32
2013-11-6,70.3,57.4,44.8,69.1,52.9,40.7,99,86,57,30.38,29.96,18,6,26,0.15
2013-11-7,64.4,51.1,39.9,44.1,38.4,31.6,89,65,31,30.49,30.37,12,4,17,0.00
2013-11-8,66.0,54.6,45.7,45.7,41.3,31.7,90,64,30,30.42,30.06,9,2,12,46.50
2013-11-9,67.6,59.8,53.4,57.8,52.8,44.2,90,78,64,30.19,30.08,7,2,9,0.00
2013-11-10,72.3,60.7,54.1,57.7,55.7,50.5,99,85,57,30.32,30.18,6,2,8,0.00
2013-11-11,80.1,62.0,48.6,55.9,52.3,47.5,99,74,40,30.27,30.12,5,1,8,46.50
2013-11-12,56.8,49.4,36.9,55.1,41.9,22.6,99,78,47,30.69,30.12,21,8,29,46.50
2013-11-13,57.7,40.7,28.2,28.4,24.5,18.5,77,55,24,30.70,30.44,8,3,11,0.00
2013-11-14,63.1,49.0,32.5,49.5,33.7,23.8,81,58,24,30.44,30.03,9,3,14,0.00
2013-11-15,80.6,63.9,47.7,59.2,55.0,47.4,99,76,44,30.04,29.81,9,3,14,0.00
2013-11-16,80.4,70.3,61.2,70.2,65.2,59.0,98,85,62,29.88,29.69,12,5,18,0.00
2013-11-17,90.7,75.7,60.1,71.4,61.6,48.2,97,66,27,29.96,29.74,9,4,13,0.00
2013-11-18,71.2,62.5,55.9,58.9,49.3,44.6,79,62,51,30.11,29.94,8,4,11,0.00
2013-11-19,73.0,59.9,49.1,50.7,45.0,39.3,84,61,32,30.16,29.97,10,3,12,0.00
2013-11-20,73.2,62.2,56.3,64.1,56.0,45.5,99,81,64,30.02,29.86,9,4,12,0.00
2013-11-21,80.6,71.0,64.4,72.1,68.0,15.8,99,91,13,30.05,29.90,11,3,21,1.41
2013-11-22,68.4,37.2,32.0,67.7,36.7,31.8,99,98,95,30.46,30.05,20,12,26,0.58
2013-11-23,39.0,35.3,32.4,38.2,34.8,32.1,99,98,93,30.53,30.42,17,10,22,0.26
2013-11-24,39.2,36.5,34.0,37.2,31.3,26.8,93,82,69,30.53,30.40,16,9,21,0.07
2013-11-25,36.7,36.5,36.3,35.4,34.6,33.7,95,93,90,30.20,30.14,15,9,18,0.32
2013-11-26,52.0,40.5,35.1,37.2,32.0,26.9,97,74,43,30.40,30.16,20,10,24,0.01
2013-11-27,51.8,38.5,28.4,28.7,22.3,14.0,83,55,23,30.52,30.34,12,5,15,0.00
2013-11-28,57.9,40.4,30.0,31.3,26.2,16.9,81,60,22,30.48,30.32,8,2,9,0.00
2013-11-29,66.9,49.1,30.9,48.7,41.8,23.9,99,77,46,30.50,30.33,8,2,10,0.00
2013-11-30,64.6,55.4,50.2,56.9,50.4,44.1,99,84,67,30.37,30.16,8,2,10,0.00
2013-12-1,72.9,62.5,55.6,59.4,57.3,55.3,99,84,62,30.19,29.92,9,3,12,0.00
2013-12-2,84.2,66.5,52.3,56.7,48.4,37.8,95,58,21,29.94,29.61,8,3,12,0.00
2013-12-3,86.2,67.8,53.4,49.8,42.9,30.2,73,45,16,29.70,29.53,8,3,14,0.00
2013-12-4,79.3,66.2,58.8,65.8,57.5,44.8,98,75,49,29.78,29.63,9,2,14,0.00
2013-12-5,63.1,39.3,27.3,62.3,33.4,21.8,99,80,60,30.17,29.76,17,10,23,0.00
2013-12-6,30.4,28.2,23.9,30.1,25.6,18.3,99,90,76,30.51,30.10,15,4,21,0.00
2013-12-7,25.9,23.5,21.0,22.1,18.5,15.3,94,81,74,30.54,30.33,14,8,23,49.33
2013-12-8,52.7,33.2,23.4,40.8,30.6,21.9,99,91,61,30.33,30.01,5,1,8,0.00
2013-12-9,36.0,32.8,29.8,35.2,32.4,27.8,99,98,92,30.44,30.08,12,4,15,0.05
2013-12-10,45.9,32.6,23.2,28.1,20.4,14.5,93,63,28,30.55,30.36,9,2,12,49.38
2013-12-11,59.9,40.8,25.7,33.5,26.1,19.3,83,60,23,30.60,30.33,8,3,11,0.00
2013-12-12,54.5,39.8,28.0,34.9,30.6,23.8,89,71,43,30.62,30.37,6,3,8,0.00
2013-12-13,48.2,44.7,39.9,47.9,43.8,36.0,99,97,75,30.16,29.88,7,3,11,0.26
2013-12-14,49.3,43.2,37.2,46.5,37.9,27.3,99,82,62,30.37,29.86,16,7,21,49.65
2013-12-15,65.5,46.1,33.3,34.6,29.1,23.4,75,55,22,30.39,30.23,8,3,9,0.00
2013-12-16,71.2,51.2,37.2,37.8,32.5,28.4,77,53,22,30.31,30.13,7,3,11,0.00
2013-12-17,78.4,56.0,39.2,40.5,34.2,27.7,75,49,16,30.31,30.17,7,2,9,0.00
2013-12-18,71.8,57.1,45.3,54.1,47.3,38.2,88,71,47,30.28,30.04,9,3,16,0.00
2013-12-19,74.5,63.8,54.0,63.4,58.4,31.6,96,83,60,30.26,29.75,14,6,21,0.00
2013-12-20,73.6,67.2,63.7,67.9,64.4,62.4,97,91,74,29.82,29.61,12,4,19,0.00
2013-12-21,69.8,51.5,39.6,67.0,43.8,35.8,99,79,41,29.83,29.57,14,5,24,0.24
2013-12-22,51.1,43.6,32.7,40.9,35.0,27.1,99,73,48,30.42,29.82,14,7,22,0.00
2013-12-23,61.3,39.3,25.9,31.5,26.3,19.2,94,65,22,30.57,30.42,7,2,9,0.00
2013-12-24,60.6,43.5,28.8,39.1,29.5,23.4,98,63,25,30.57,30.27,10,3,13,0.00
2013-12-25,64.6,47.9,35.6,48.8,42.2,34.8,99,82,55,30.43,30.23,12,3,15,0.00
2013-12-26,62.6,43.7,33.4,41.1,36.7,32.2,99,79,42,30.46,30.29,7,3,9,0.00
2013-12-27,59.0,47.0,38.1,43.3,39.2,31.0,99,77,38,30.44,30.32,7,2,9,0.00
2013-12-28,64.9,50.8,37.9,45.5,42.4,37.7,99,76,45,30.34,30.01,6,2,10,0.01
2013-12-29,58.5,47.9,29.5,49.7,44.9,29.0,99,90,71,30.35,29.95,13,4,16,0.00
2013-12-30,46.2,35.2,28.6,29.0,25.7,21.0,98,70,43,30.43,30.27,13,5,17,0.00
2013-12-31,59.5,41.2,30.4,31.9,28.5,22.1,89,64,29,30.48,30.25,7,2,10,0.00
2014-1-1,69.6,51.5,35.8,54.5,42.4,28.5,99,72,53,30.42,29.94,14,5,20,0.00
2014-1-2,50.5,38.5,27.7,38.4,23.9,16.8,78,57,30,30.50,30.14,19,8,24,0.00